createdAt,value
2024-04-17T00:02:01.859Z,100.00
2024-04-17T00:04:28.489Z,100.00
2024-04-17T00:06:55.011Z,100.00
2024-04-17T00:09:21.476Z,100.00
2024-04-17T00:11:48.056Z,100.00
2024-04-17T00:14:14.542Z,100.00
2024-04-17T00:16:41.292Z,100.00
2024-04-17T00:19:07.786Z,100.00
2024-04-17T00:21:34.724Z,100.00
2024-04-17T00:24:01.452Z,100.00
2024-04-17T00:26:27.923Z,100.00
2024-04-17T00:28:54.475Z,100.00
2024-04-17T00:31:20.970Z,100.00
2024-04-17T00:33:47.553Z,100.00
2024-04-17T00:36:14.054Z,100.00
2024-04-17T00:38:40.608Z,100.00
2024-04-17T00:41:07.180Z,100.00
2024-04-17T00:43:33.720Z,100.00
2024-04-17T00:46:01.527Z,100.00
2024-04-17T00:48:28.187Z,100.00
2024-04-17T00:50:55.988Z,100.00
2024-04-17T00:53:26.342Z,100.00
2024-04-17T00:55:55.499Z,100.00
2024-04-17T00:58:23.130Z,100.00
2024-04-17T01:00:49.728Z,100.00
2024-04-17T01:03:16.544Z,100.00
2024-04-17T01:05:44.306Z,100.00
2024-04-17T01:08:11.519Z,100.00
2024-04-17T01:10:38.030Z,100.00
2024-04-17T01:13:04.879Z,100.00
2024-04-17T01:15:31.351Z,100.00
2024-04-17T01:18:00.118Z,100.00
2024-04-17T01:20:26.903Z,100.00
2024-04-17T01:22:53.630Z,100.00
2024-04-17T01:25:20.477Z,100.00
2024-04-17T01:27:47.070Z,100.00
2024-04-17T01:30:13.607Z,100.00
2024-04-17T01:32:40.216Z,100.00
2024-04-17T01:35:06.847Z,100.00
2024-04-17T01:37:33.296Z,100.00
2024-04-17T01:39:59.758Z,100.00
2024-04-17T01:42:26.187Z,100.00
2024-04-17T01:44:52.639Z,100.00
2024-04-17T01:47:19.177Z,100.00
2024-04-17T01:49:45.674Z,100.00
2024-04-17T01:52:12.133Z,100.00
2024-04-17T01:54:38.850Z,100.00
2024-04-17T01:57:05.370Z,100.00
2024-04-17T01:59:31.965Z,100.00
2024-04-17T02:01:58.477Z,100.00
2024-04-17T02:04:25.103Z,100.00
2024-04-17T02:06:51.552Z,100.00
2024-04-17T02:09:18.225Z,100.00
2024-04-17T02:11:46.093Z,100.00
2024-04-17T02:14:12.617Z,100.00
2024-04-17T02:16:39.368Z,100.00
2024-04-17T02:19:06.096Z,100.00
2024-04-17T02:21:32.668Z,100.00
2024-04-17T02:23:59.232Z,100.00
2024-04-17T02:26:25.655Z,100.00
2024-04-17T02:28:52.181Z,100.00
2024-04-17T02:31:18.659Z,100.00
2024-04-17T02:33:45.245Z,100.00
2024-04-17T02:36:12.047Z,100.00
2024-04-17T02:38:38.712Z,100.00
2024-04-17T02:41:05.195Z,100.00
2024-04-17T02:43:31.893Z,100.00
2024-04-17T02:45:58.348Z,100.00
2024-04-17T02:48:24.913Z,100.00
2024-04-17T02:50:51.361Z,100.00
2024-04-17T02:53:17.779Z,100.00
2024-04-17T02:55:44.254Z,100.00
2024-04-17T02:58:10.756Z,100.00
2024-04-17T03:00:37.237Z,100.00
2024-04-17T03:03:05.991Z,100.00
2024-04-17T03:05:35.187Z,100.00
2024-04-17T03:08:03.415Z,100.00
2024-04-17T03:10:29.955Z,100.00
2024-04-17T03:12:56.990Z,100.00
2024-04-17T03:15:23.447Z,100.00
2024-04-17T03:17:50.085Z,100.00
2024-04-17T03:20:16.676Z,100.00
2024-04-17T03:22:43.469Z,100.00
2024-04-17T03:25:10.130Z,100.00
2024-04-17T03:27:36.842Z,100.00
2024-04-17T03:30:03.689Z,100.00
2024-04-17T03:32:30.321Z,100.00
2024-04-17T03:34:56.850Z,100.00
2024-04-17T03:37:23.715Z,100.00
2024-04-17T03:39:50.191Z,100.00
2024-04-17T03:42:18.903Z,100.00
2024-04-17T03:44:46.802Z,100.00
2024-04-17T03:47:13.246Z,100.00
2024-04-17T03:49:40.117Z,100.00
2024-04-17T03:52:09.626Z,100.00
2024-04-17T03:54:36.116Z,100.00
2024-04-17T03:57:02.626Z,100.00
2024-04-17T03:59:29.076Z,100.00
2024-04-17T04:01:55.686Z,100.00
2024-04-17T04:04:22.684Z,100.00
2024-04-17T04:06:49.454Z,100.00
2024-04-17T04:09:15.971Z,100.00
2024-04-17T04:11:43.092Z,100.00
2024-04-17T04:14:09.773Z,100.00
2024-04-17T04:16:36.278Z,100.00
2024-04-17T04:19:02.737Z,100.00
2024-04-17T04:21:29.247Z,100.00
2024-04-17T04:23:55.694Z,100.00
2024-04-17T04:26:22.443Z,100.00
2024-04-17T04:28:49.188Z,100.00
2024-04-17T04:31:15.889Z,100.00
2024-04-17T04:33:42.325Z,100.00
2024-04-17T04:36:08.868Z,100.00
2024-04-17T04:38:35.295Z,100.00
2024-04-17T04:41:03.206Z,100.00
2024-04-17T04:43:29.823Z,100.00
2024-04-17T04:45:56.783Z,100.00
2024-04-17T04:48:23.440Z,100.00
2024-04-17T04:50:49.966Z,100.00
2024-04-17T04:53:16.416Z,100.00
2024-04-17T04:55:42.962Z,100.00
2024-04-17T04:58:09.450Z,100.00
2024-04-17T05:00:36.334Z,100.00
2024-04-17T05:03:02.843Z,100.00
2024-04-17T05:05:29.388Z,100.00
2024-04-17T05:07:55.914Z,100.00
2024-04-17T05:10:22.522Z,100.00
2024-04-17T05:12:49.272Z,100.00
2024-04-17T05:15:16.016Z,100.00
2024-04-17T05:17:42.563Z,100.00
2024-04-17T05:20:09.349Z,100.00
2024-04-17T05:22:35.870Z,100.00
2024-04-17T05:25:02.349Z,100.00
2024-04-17T05:27:29.160Z,100.00
2024-04-17T05:29:56.579Z,100.00
2024-04-17T05:32:23.129Z,100.00
2024-04-17T05:34:49.644Z,100.00
2024-04-17T05:37:16.099Z,100.00
2024-04-17T05:39:42.585Z,100.00
2024-04-17T05:42:09.019Z,100.00
2024-04-17T05:44:37.878Z,100.00
2024-04-17T05:47:05.962Z,100.00
2024-04-17T05:49:32.617Z,100.00
2024-04-17T05:51:59.203Z,100.00
2024-04-17T05:54:25.676Z,100.00
2024-04-17T05:56:52.403Z,100.00
2024-04-17T05:59:18.919Z,100.00
2024-04-17T06:01:45.415Z,100.00
2024-04-17T06:04:12.196Z,100.00
2024-04-17T06:06:38.707Z,100.00
2024-04-17T06:09:05.495Z,100.00
2024-04-17T06:11:32.192Z,100.00
2024-04-17T06:13:58.907Z,100.00
2024-04-17T06:16:25.716Z,100.00
2024-04-17T06:18:52.464Z,100.00
2024-04-17T06:21:19.160Z,100.00
2024-04-17T06:23:45.772Z,100.00
2024-04-17T06:26:12.340Z,100.00
2024-04-17T06:28:38.779Z,100.00
2024-04-17T06:31:05.303Z,100.00
2024-04-17T06:33:31.791Z,100.00
2024-04-17T06:35:58.314Z,100.00
2024-04-17T06:38:24.947Z,100.00
2024-04-17T06:40:51.474Z,100.00
2024-04-17T06:43:17.927Z,100.00
2024-04-17T06:45:47.253Z,100.00
2024-04-17T06:48:15.185Z,100.00
2024-04-17T06:50:42.187Z,100.00
2024-04-17T06:53:08.976Z,100.00
2024-04-17T06:55:35.519Z,100.00
2024-04-17T06:58:02.077Z,100.00
2024-04-17T07:00:37.722Z,100.00
2024-04-17T07:03:05.407Z,100.00
2024-04-17T07:05:32.658Z,100.00
2024-04-17T07:07:59.376Z,100.00
2024-04-17T07:10:26.308Z,100.00
2024-04-17T07:12:52.833Z,100.00
2024-04-17T07:15:19.340Z,100.00
2024-04-17T07:17:45.863Z,100.00
2024-04-17T07:20:13.025Z,100.00
2024-04-17T07:22:39.750Z,100.00
2024-04-17T07:25:06.412Z,100.00
2024-04-17T07:27:32.889Z,100.00
2024-04-17T07:29:59.343Z,100.00
2024-04-17T07:32:25.844Z,100.00
2024-04-17T07:34:52.734Z,100.00
2024-04-17T07:37:20.239Z,100.00
2024-04-17T07:39:46.694Z,100.00
2024-04-17T07:42:13.176Z,100.00
2024-04-17T07:44:39.708Z,100.00
2024-04-17T07:47:06.289Z,100.00
2024-04-17T07:49:32.782Z,100.00
2024-04-17T07:51:59.263Z,100.00
2024-04-17T07:54:25.758Z,100.00
2024-04-17T07:56:52.259Z,100.00
2024-04-17T07:59:19.685Z,100.00
2024-04-17T08:01:46.402Z,100.00
2024-04-17T08:04:12.987Z,100.00
2024-04-17T08:06:39.487Z,100.00
2024-04-17T08:09:08.583Z,100.00
2024-04-17T08:11:38.894Z,100.00
2024-04-17T08:14:06.134Z,100.00
2024-04-17T08:16:33.022Z,100.00
2024-04-17T08:18:59.768Z,100.00
2024-04-17T08:21:26.241Z,100.00
2024-04-17T08:23:52.762Z,100.00
2024-04-17T08:26:19.204Z,100.00
2024-04-17T08:28:45.680Z,100.00
2024-04-17T08:31:12.883Z,100.00
2024-04-17T08:33:39.590Z,100.00
2024-04-17T08:36:06.501Z,100.00
2024-04-17T08:38:33.200Z,100.00
2024-04-17T08:41:00.163Z,91.93
2024-04-17T08:43:28.659Z,91.94
2024-04-17T08:45:56.728Z,97.34
2024-04-17T08:48:25.000Z,91.69
2024-04-17T08:50:52.418Z,91.45
2024-04-17T08:53:22.588Z,87.39
2024-04-17T08:55:50.137Z,86.57
2024-04-17T08:58:17.242Z,87.62
2024-04-17T09:00:47.200Z,88.51
2024-04-17T09:03:20.928Z,90.53
2024-04-17T09:05:47.868Z,90.66
2024-04-17T09:08:14.705Z,79.21
2024-04-17T09:10:41.280Z,73.50
2024-04-17T09:13:08.816Z,70.38
2024-04-17T09:15:35.580Z,69.77
2024-04-17T09:18:08.922Z,75.17
2024-04-17T09:20:36.303Z,77.54
2024-04-17T09:23:03.922Z,75.26
2024-04-17T09:25:30.435Z,69.31
2024-04-17T09:27:56.910Z,74.69
2024-04-17T09:30:23.382Z,78.31
2024-04-17T09:32:50.074Z,82.36
2024-04-17T09:35:16.718Z,79.83
2024-04-17T09:37:43.376Z,83.70
2024-04-17T09:40:11.238Z,75.21
2024-04-17T09:42:39.233Z,74.96
2024-04-17T09:45:06.225Z,75.84
2024-04-17T09:47:32.828Z,73.02
2024-04-17T09:50:02.621Z,74.29
2024-04-17T09:52:30.599Z,70.85
2024-04-17T09:54:57.747Z,70.49
2024-04-17T09:57:24.229Z,72.29
2024-04-17T09:59:50.940Z,66.73
2024-04-17T10:02:18.590Z,64.44
2024-04-17T10:04:47.092Z,66.64
2024-04-17T10:07:15.271Z,64.14
2024-04-17T10:09:42.125Z,62.86
2024-04-17T10:12:12.371Z,61.91
2024-04-17T10:14:39.748Z,57.05
2024-04-17T10:17:20.948Z,55.04
2024-04-17T10:19:54.775Z,57.86
2024-04-17T10:22:21.313Z,57.83
2024-04-17T10:24:47.808Z,60.20
2024-04-17T10:27:18.686Z,59.82
2024-04-17T10:29:45.190Z,56.63
2024-04-17T10:32:13.578Z,56.52
2024-04-17T10:34:48.719Z,60.37
2024-04-17T10:37:17.580Z,57.78
2024-04-17T10:39:45.864Z,55.15
2024-04-17T10:42:20.139Z,54.32
2024-04-17T10:44:51.916Z,58.72
2024-04-17T10:47:31.388Z,58.19
2024-04-17T10:49:59.780Z,59.48
2024-04-17T10:52:27.727Z,59.38
2024-04-17T10:54:55.294Z,61.13
2024-04-17T10:57:22.046Z,60.42
2024-04-17T10:59:49.427Z,58.89
2024-04-17T11:02:16.434Z,57.72
2024-04-17T11:04:43.289Z,60.04
2024-04-17T11:07:13.928Z,65.60
2024-04-17T11:09:49.697Z,75.24
2024-04-17T11:12:20.319Z,81.36
2024-04-17T11:14:48.617Z,85.35
2024-04-17T11:17:15.822Z,97.59
2024-04-17T11:19:43.422Z,92.10
2024-04-17T11:22:15.539Z,100.00
2024-04-17T11:24:47.062Z,96.80
2024-04-17T11:27:16.415Z,97.53
2024-04-17T11:29:48.767Z,92.94
2024-04-17T11:32:17.161Z,95.58
2024-04-17T11:34:44.063Z,97.81
2024-04-17T11:37:10.867Z,96.49
2024-04-17T11:39:40.732Z,97.77
2024-04-17T11:42:10.624Z,100.00
2024-04-17T11:44:42.195Z,100.00
2024-04-17T11:47:12.019Z,93.90
2024-04-17T11:49:38.822Z,93.46
2024-04-17T11:52:09.000Z,93.65
2024-04-17T11:54:35.735Z,99.01
2024-04-17T11:57:02.382Z,92.25
2024-04-17T11:59:29.105Z,89.12
2024-04-17T12:01:55.646Z,91.15
2024-04-17T12:04:22.542Z,87.85
2024-04-17T12:06:49.423Z,91.28
2024-04-17T12:09:15.953Z,97.27
2024-04-17T12:11:42.687Z,91.92
2024-04-17T12:14:09.409Z,96.93
2024-04-17T12:16:35.929Z,91.74
2024-04-17T12:19:02.488Z,87.43
2024-04-17T12:21:28.963Z,87.04
2024-04-17T12:23:56.901Z,91.14
2024-04-17T12:26:42.382Z,82.49
2024-04-17T12:29:11.226Z,81.97
2024-04-17T12:31:38.180Z,83.95
2024-04-17T12:34:04.644Z,85.63
2024-04-17T12:36:31.520Z,81.83
2024-04-17T12:38:58.342Z,87.41
2024-04-17T12:41:24.804Z,81.45
2024-04-17T12:43:51.351Z,87.34
2024-04-17T12:46:18.818Z,81.87
2024-04-17T12:48:46.607Z,84.53
2024-04-17T12:51:13.609Z,88.82
2024-04-17T12:53:40.134Z,85.97
2024-04-17T12:56:06.664Z,87.45
2024-04-17T12:58:33.385Z,93.16
2024-04-17T13:01:04.387Z,96.28
2024-04-17T13:03:32.699Z,95.03
2024-04-17T13:06:03.332Z,99.04
2024-04-17T13:08:29.854Z,98.44
2024-04-17T13:11:03.019Z,100.00
2024-04-17T13:13:29.747Z,100.00
2024-04-17T13:16:01.246Z,95.20
2024-04-17T13:18:33.410Z,97.36
2024-04-17T13:21:00.094Z,89.85
2024-04-17T13:23:27.739Z,89.62
2024-04-17T13:25:59.058Z,88.43
2024-04-17T13:28:27.424Z,90.74
2024-04-17T13:30:59.043Z,90.65
2024-04-17T13:33:26.614Z,91.01
2024-04-17T13:35:57.704Z,88.23
2024-04-17T13:38:25.386Z,90.83
2024-04-17T13:41:06.737Z,91.69
2024-04-17T13:43:35.391Z,88.35
2024-04-17T13:46:12.521Z,83.52
2024-04-17T13:48:39.649Z,81.43
2024-04-17T13:51:08.099Z,82.15
2024-04-17T13:53:35.890Z,84.22
2024-04-17T13:56:02.753Z,82.56
2024-04-17T13:58:29.680Z,85.06
2024-04-17T14:00:59.429Z,87.19
2024-04-17T14:03:26.754Z,87.64
2024-04-17T14:05:53.552Z,93.17
2024-04-17T14:08:21.795Z,92.27
2024-04-17T14:10:50.033Z,97.04
2024-04-17T14:13:17.640Z,100.00
2024-04-17T14:15:44.302Z,100.00
2024-04-17T14:18:11.511Z,100.00
2024-04-17T14:20:38.859Z,100.00
2024-04-17T14:23:06.279Z,100.00
2024-04-17T14:25:33.463Z,100.00
2024-04-17T14:28:00.010Z,100.00
2024-04-17T14:30:26.913Z,100.00
2024-04-17T14:32:53.503Z,100.00
2024-04-17T14:35:21.244Z,100.00
2024-04-17T14:37:48.649Z,100.00
2024-04-17T14:40:15.589Z,100.00
2024-04-17T14:42:42.897Z,100.00
2024-04-17T14:45:09.494Z,100.00
2024-04-17T14:47:36.130Z,100.00
2024-04-17T14:50:02.583Z,100.00
2024-04-17T14:52:29.043Z,100.00
2024-04-17T14:54:57.324Z,100.00
2024-04-17T14:57:23.811Z,100.00
2024-04-17T14:59:50.313Z,100.00
2024-04-17T15:02:16.948Z,100.00
2024-04-17T15:04:43.687Z,100.00
2024-04-17T15:07:10.359Z,100.00
2024-04-17T15:09:37.007Z,100.00
2024-04-17T15:12:03.800Z,100.00
2024-04-17T15:14:30.308Z,100.00
2024-04-17T15:16:56.754Z,100.00
2024-04-17T15:19:24.314Z,100.00
2024-04-17T15:21:50.824Z,100.00
2024-04-17T15:24:17.964Z,100.00
2024-04-17T15:26:44.744Z,100.00
2024-04-17T15:29:11.298Z,100.00
2024-04-17T15:31:37.720Z,100.00
2024-04-17T15:34:04.402Z,100.00
2024-04-17T15:36:30.939Z,100.00
2024-04-17T15:38:58.068Z,100.00
2024-04-17T15:41:25.157Z,100.00
2024-04-17T15:43:52.857Z,100.00
2024-04-17T15:46:20.243Z,100.00
2024-04-17T15:48:47.266Z,100.00
2024-04-17T15:51:16.052Z,100.00
2024-04-17T15:53:45.777Z,100.00
2024-04-17T15:56:25.600Z,100.00
2024-04-17T15:58:52.687Z,100.00
2024-04-17T16:01:19.947Z,100.00
2024-04-17T16:03:49.964Z,100.00
2024-04-17T16:06:16.979Z,100.00
2024-04-17T16:08:44.134Z,100.00
2024-04-17T16:11:11.523Z,100.00
2024-04-17T16:13:39.476Z,100.00
2024-04-17T16:16:07.685Z,100.00
2024-04-17T16:18:34.988Z,100.00
2024-04-17T16:21:16.391Z,100.00
2024-04-17T16:23:44.174Z,100.00
2024-04-17T16:26:15.521Z,100.00
2024-04-17T16:28:44.076Z,100.00
2024-04-17T16:31:15.611Z,100.00
2024-04-17T16:33:46.806Z,100.00
2024-04-17T16:36:14.121Z,100.00
2024-04-17T16:38:41.138Z,100.00
2024-04-17T16:41:09.525Z,100.00
2024-04-17T16:43:36.789Z,100.00
2024-04-17T16:46:05.092Z,100.00
2024-04-17T16:48:38.183Z,100.00
2024-04-17T16:51:05.793Z,100.00
2024-04-17T16:53:32.689Z,100.00
2024-04-17T16:55:59.474Z,100.00
2024-04-17T16:58:25.960Z,100.00
2024-04-17T17:01:00.615Z,100.00
2024-04-17T17:03:27.231Z,100.00
2024-04-17T17:06:00.555Z,100.00
2024-04-17T17:08:27.332Z,100.00
2024-04-17T17:10:55.116Z,100.00
2024-04-17T17:13:22.476Z,100.00
2024-04-17T17:15:58.268Z,100.00
2024-04-17T17:18:25.083Z,100.00
2024-04-17T17:20:58.973Z,100.00
2024-04-17T17:23:29.268Z,100.00
2024-04-17T17:25:56.844Z,100.00
2024-04-17T17:28:25.975Z,100.00
2024-04-17T17:31:00.032Z,100.00
2024-04-17T17:33:27.130Z,100.00
2024-04-17T17:35:57.938Z,100.00
2024-04-17T17:38:25.237Z,100.00
2024-04-17T17:40:52.207Z,100.00
2024-04-17T17:43:18.776Z,100.00
2024-04-17T17:45:45.887Z,100.00
2024-04-17T17:48:12.486Z,100.00
2024-04-17T17:50:46.763Z,100.00
2024-04-17T17:53:14.330Z,100.00
2024-04-17T17:55:40.852Z,100.00
2024-04-17T17:58:07.340Z,100.00
2024-04-17T18:00:34.074Z,100.00
2024-04-17T18:03:00.587Z,100.00
2024-04-17T18:05:27.025Z,100.00
2024-04-17T18:07:53.867Z,100.00
2024-04-17T18:10:20.425Z,100.00
2024-04-17T18:12:47.432Z,100.00
2024-04-17T18:15:14.712Z,100.00
2024-04-17T18:17:44.862Z,100.00
2024-04-17T18:20:11.542Z,100.00
2024-04-17T18:22:38.035Z,100.00
2024-04-17T18:25:06.313Z,100.00
2024-04-17T18:27:32.826Z,100.00
2024-04-17T18:29:59.732Z,100.00
2024-04-17T18:32:26.294Z,100.00
2024-04-17T18:34:52.797Z,100.00
2024-04-17T18:37:19.380Z,100.00
2024-04-17T18:39:52.130Z,100.00
2024-04-17T18:42:18.735Z,100.00
2024-04-17T18:44:45.254Z,100.00
2024-04-17T18:47:11.716Z,100.00
2024-04-17T18:49:38.295Z,100.00
2024-04-17T18:52:04.760Z,100.00
2024-04-17T18:54:31.256Z,100.00
2024-04-17T18:56:57.801Z,100.00
2024-04-17T18:59:24.381Z,100.00
2024-04-17T19:01:50.877Z,100.00
2024-04-17T19:04:17.414Z,100.00
2024-04-17T19:06:44.244Z,100.00
2024-04-17T19:09:11.066Z,100.00
2024-04-17T19:11:37.713Z,100.00
2024-04-17T19:14:04.244Z,100.00
2024-04-17T19:16:30.774Z,100.00
2024-04-17T19:18:57.464Z,100.00
2024-04-17T19:21:24.306Z,100.00
2024-04-17T19:23:51.149Z,100.00
2024-04-17T19:26:17.742Z,100.00
2024-04-17T19:28:45.078Z,100.00
2024-04-17T19:31:12.014Z,100.00
2024-04-17T19:33:41.814Z,100.00
2024-04-17T19:36:09.560Z,100.00
2024-04-17T19:38:38.017Z,100.00
2024-04-17T19:41:07.308Z,100.00
2024-04-17T19:43:34.141Z,100.00
2024-04-17T19:46:00.748Z,100.00
2024-04-17T19:48:29.035Z,100.00
2024-04-17T19:50:58.383Z,100.00
2024-04-17T19:53:25.231Z,100.00
2024-04-17T19:55:51.759Z,100.00
2024-04-17T19:58:18.472Z,100.00
2024-04-17T20:00:45.159Z,100.00
2024-04-17T20:03:11.790Z,100.00
2024-04-17T20:05:38.641Z,100.00
2024-04-17T20:08:05.392Z,100.00
2024-04-17T20:10:37.882Z,100.00
2024-04-17T20:13:04.398Z,100.00
2024-04-17T20:15:37.717Z,100.00
2024-04-17T20:18:04.271Z,100.00
2024-04-17T20:20:36.669Z,100.00
2024-04-17T20:23:04.742Z,100.00
2024-04-17T20:25:31.209Z,100.00
2024-04-17T20:27:57.853Z,100.00
2024-04-17T20:30:24.377Z,100.00
2024-04-17T20:32:51.005Z,100.00
2024-04-17T20:35:17.524Z,100.00
2024-04-17T20:37:46.015Z,100.00
2024-04-17T20:40:17.399Z,100.00
2024-04-17T20:42:49.503Z,100.00
2024-04-17T20:45:17.354Z,100.00
2024-04-17T20:47:44.229Z,100.00
2024-04-17T20:50:10.774Z,100.00
2024-04-17T20:52:37.210Z,100.00
2024-04-17T20:55:03.926Z,100.00
2024-04-17T20:57:30.516Z,100.00
2024-04-17T20:59:57.129Z,100.00
2024-04-17T21:02:24.450Z,100.00
2024-04-17T21:04:51.161Z,100.00
2024-04-17T21:07:17.675Z,100.00
2024-04-17T21:09:44.563Z,100.00
2024-04-17T21:12:11.085Z,100.00
2024-04-17T21:14:37.556Z,100.00
2024-04-17T21:17:04.340Z,100.00
2024-04-17T21:19:30.822Z,100.00
2024-04-17T21:21:57.306Z,100.00
2024-04-17T21:24:23.846Z,100.00
2024-04-17T21:26:50.651Z,100.00
2024-04-17T21:29:18.522Z,100.00
2024-04-17T21:31:45.528Z,100.00
2024-04-17T21:34:12.201Z,100.00
2024-04-17T21:36:38.768Z,100.00
2024-04-17T21:39:05.463Z,100.00
2024-04-17T21:41:32.075Z,100.00
2024-04-17T21:43:59.098Z,100.00
2024-04-17T21:46:25.905Z,100.00
2024-04-17T21:48:52.544Z,100.00
2024-04-17T21:51:19.494Z,100.00
2024-04-17T21:53:46.311Z,100.00
2024-04-17T21:56:13.581Z,100.00
2024-04-17T21:58:41.125Z,100.00
2024-04-17T22:01:08.590Z,100.00
2024-04-17T22:03:37.444Z,100.00
2024-04-17T22:06:09.024Z,100.00
2024-04-17T22:08:37.166Z,100.00
2024-04-17T22:11:03.992Z,100.00
2024-04-17T22:13:31.275Z,100.00
2024-04-17T22:15:59.551Z,100.00
2024-04-17T22:18:26.633Z,100.00
2024-04-17T22:20:53.281Z,100.00
2024-04-17T22:23:19.794Z,100.00
2024-04-17T22:25:49.339Z,100.00
2024-04-17T22:28:16.008Z,100.00
2024-04-17T22:30:43.205Z,100.00
2024-04-17T22:33:09.956Z,100.00
2024-04-17T22:35:37.013Z,100.00
2024-04-17T22:38:03.660Z,100.00
2024-04-17T22:40:30.206Z,100.00
2024-04-17T22:42:57.445Z,100.00
2024-04-17T22:45:25.237Z,100.00
2024-04-17T22:47:51.820Z,100.00
2024-04-17T22:50:18.336Z,100.00
2024-04-17T22:52:44.855Z,100.00
2024-04-17T22:55:11.534Z,100.00
2024-04-17T22:57:38.104Z,100.00
2024-04-17T23:00:05.167Z,100.00
2024-04-17T23:02:31.763Z,100.00
2024-04-17T23:04:58.299Z,100.00
2024-04-17T23:07:24.797Z,100.00
2024-04-17T23:09:51.471Z,100.00
2024-04-17T23:12:18.120Z,100.00
2024-04-17T23:14:44.644Z,100.00
2024-04-17T23:17:11.141Z,100.00
2024-04-17T23:19:37.790Z,100.00
2024-04-17T23:22:04.681Z,100.00
2024-04-17T23:24:32.181Z,100.00
2024-04-17T23:26:58.651Z,100.00
2024-04-17T23:29:25.114Z,100.00
2024-04-17T23:31:51.576Z,100.00
2024-04-17T23:34:18.031Z,100.00
2024-04-17T23:36:44.612Z,100.00
2024-04-17T23:39:11.355Z,100.00
2024-04-17T23:41:37.848Z,100.00
2024-04-17T23:44:04.402Z,100.00
2024-04-17T23:46:30.844Z,100.00
2024-04-17T23:48:57.514Z,100.00
2024-04-17T23:51:23.954Z,100.00
2024-04-17T23:53:50.551Z,100.00
2024-04-17T23:56:18.733Z,100.00
2024-04-17T23:58:45.215Z,100.00
